sensor_id;sensor_type;location;lat;lon;timestamp;temperature;humidity
12688;DHT22;6408;59.388;17.798;2022-08-03T00:01:33;17.20;99.90
12688;DHT22;6408;59.388;17.798;2022-08-03T00:04:00;17.20;99.90
12688;DHT22;6408;59.388;17.798;2022-08-03T00:06:26;17.20;99.90
12688;DHT22;6408;59.388;17.798;2022-08-03T00:08:53;17.10;99.90
12688;DHT22;6408;59.388;17.798;2022-08-03T00:11:21;17.10;99.90
12688;DHT22;6408;59.388;17.798;2022-08-03T00:13:48;17.10;99.90
12688;DHT22;6408;59.388;17.798;2022-08-03T00:16:15;17.00;99.90
12688;DHT22;6408;59.388;17.798;2022-08-03T00:18:42;17.00;99.90
12688;DHT22;6408;59.388;17.798;2022-08-03T00:21:09;17.00;99.90
12688;DHT22;6408;59.388;17.798;2022-08-03T00:23:36;17.10;99.90
12688;DHT22;6408;59.388;17.798;2022-08-03T00:26:03;17.00;99.90
12688;DHT22;6408;59.388;17.798;2022-08-03T00:28:31;17.10;99.90
12688;DHT22;6408;59.388;17.798;2022-08-03T00:30:58;17.10;99.90
12688;DHT22;6408;59.388;17.798;2022-08-03T00:33:25;17.00;99.90
12688;DHT22;6408;59.388;17.798;2022-08-03T00:35:52;17.00;99.90
12688;DHT22;6408;59.388;17.798;2022-08-03T00:38:19;16.90;99.90
12688;DHT22;6408;59.388;17.798;2022-08-03T00:40:46;16.80;99.90
12688;DHT22;6408;59.388;17.798;2022-08-03T00:43:12;16.90;99.90
12688;DHT22;6408;59.388;17.798;2022-08-03T00:45:42;16.80;99.90
12688;DHT22;6408;59.388;17.798;2022-08-03T00:48:11;16.80;99.90
12688;DHT22;6408;59.388;17.798;2022-08-03T00:50:39;16.80;99.90
12688;DHT22;6408;59.388;17.798;2022-08-03T00:53:06;16.80;99.90
12688;DHT22;6408;59.388;17.798;2022-08-03T00:55:35;16.70;99.90
12688;DHT22;6408;59.388;17.798;2022-08-03T00:58:02;16.80;99.90
12688;DHT22;6408;59.388;17.798;2022-08-03T01:00:32;16.80;99.90
12688;DHT22;6408;59.388;17.798;2022-08-03T01:03:01;16.80;99.90
12688;DHT22;6408;59.388;17.798;2022-08-03T01:05:29;16.80;99.90
12688;DHT22;6408;59.388;17.798;2022-08-03T01:08:04;16.80;99.90
12688;DHT22;6408;59.388;17.798;2022-08-03T01:10:38;16.80;99.90
12688;DHT22;6408;59.388;17.798;2022-08-03T01:13:16;16.80;99.90
12688;DHT22;6408;59.388;17.798;2022-08-03T01:15:52;16.70;99.90
12688;DHT22;6408;59.388;17.798;2022-08-03T01:18:27;16.70;99.90
12688;DHT22;6408;59.388;17.798;2022-08-03T01:20:57;16.70;99.90
12688;DHT22;6408;59.388;17.798;2022-08-03T01:23:45;16.80;99.90
12688;DHT22;6408;59.388;17.798;2022-08-03T01:26:35;16.70;99.90
12688;DHT22;6408;59.388;17.798;2022-08-03T01:31:58;16.70;99.90
12688;DHT22;6408;59.388;17.798;2022-08-03T01:34:33;16.70;99.90
12688;DHT22;6408;59.388;17.798;2022-08-03T01:37:04;16.70;99.90
12688;DHT22;6408;59.388;17.798;2022-08-03T01:39:34;16.70;99.90
12688;DHT22;6408;59.388;17.798;2022-08-03T01:42:03;16.70;99.90
12688;DHT22;6408;59.388;17.798;2022-08-03T01:44:34;16.70;99.90
12688;DHT22;6408;59.388;17.798;2022-08-03T01:47:04;16.70;99.90
12688;DHT22;6408;59.388;17.798;2022-08-03T01:49:36;16.60;99.90
12688;DHT22;6408;59.388;17.798;2022-08-03T01:52:04;16.60;99.90
12688;DHT22;6408;59.388;17.798;2022-08-03T01:54:34;16.60;99.90
12688;DHT22;6408;59.388;17.798;2022-08-03T01:57:02;16.60;99.90
12688;DHT22;6408;59.388;17.798;2022-08-03T01:59:29;16.70;99.90
12688;DHT22;6408;59.388;17.798;2022-08-03T02:01:59;16.60;99.90
12688;DHT22;6408;59.388;17.798;2022-08-03T02:04:28;16.60;99.90
12688;DHT22;6408;59.388;17.798;2022-08-03T02:06:56;16.50;99.90
12688;DHT22;6408;59.388;17.798;2022-08-03T02:09:24;16.60;99.90
12688;DHT22;6408;59.388;17.798;2022-08-03T02:11:55;16.50;99.90
12688;DHT22;6408;59.388;17.798;2022-08-03T02:14:22;16.60;99.90
12688;DHT22;6408;59.388;17.798;2022-08-03T02:16:51;16.60;99.90
12688;DHT22;6408;59.388;17.798;2022-08-03T02:19:18;16.60;99.90
12688;DHT22;6408;59.388;17.798;2022-08-03T02:21:48;16.50;99.90
12688;DHT22;6408;59.388;17.798;2022-08-03T02:24:17;16.50;99.90
12688;DHT22;6408;59.388;17.798;2022-08-03T02:26:44;16.60;99.90
12688;DHT22;6408;59.388;17.798;2022-08-03T02:29:15;16.70;99.90
12688;DHT22;6408;59.388;17.798;2022-08-03T02:31:44;16.60;99.90
12688;DHT22;6408;59.388;17.798;2022-08-03T02:34:13;16.60;99.90
12688;DHT22;6408;59.388;17.798;2022-08-03T02:36:41;16.60;99.90
12688;DHT22;6408;59.388;17.798;2022-08-03T02:39:16;16.60;99.90
12688;DHT22;6408;59.388;17.798;2022-08-03T02:41:50;16.60;99.90
12688;DHT22;6408;59.388;17.798;2022-08-03T02:44:22;16.60;99.90
12688;DHT22;6408;59.388;17.798;2022-08-03T02:46:53;16.60;99.90
12688;DHT22;6408;59.388;17.798;2022-08-03T02:49:22;16.60;99.90
12688;DHT22;6408;59.388;17.798;2022-08-03T02:51:51;16.60;99.90
12688;DHT22;6408;59.388;17.798;2022-08-03T02:54:21;16.60;99.90
12688;DHT22;6408;59.388;17.798;2022-08-03T02:56:50;16.60;99.90
12688;DHT22;6408;59.388;17.798;2022-08-03T02:59:17;16.60;99.90
12688;DHT22;6408;59.388;17.798;2022-08-03T03:01:45;16.60;99.90
12688;DHT22;6408;59.388;17.798;2022-08-03T03:04:13;16.60;99.90
12688;DHT22;6408;59.388;17.798;2022-08-03T03:06:41;16.60;99.90
12688;DHT22;6408;59.388;17.798;2022-08-03T03:09:08;16.60;99.90
12688;DHT22;6408;59.388;17.798;2022-08-03T03:11:37;16.50;99.90
12688;DHT22;6408;59.388;17.798;2022-08-03T03:14:05;16.50;99.90
12688;DHT22;6408;59.388;17.798;2022-08-03T03:16:33;16.50;99.90
12688;DHT22;6408;59.388;17.798;2022-08-03T03:19:00;16.50;99.90
12688;DHT22;6408;59.388;17.798;2022-08-03T03:21:28;16.50;99.90
12688;DHT22;6408;59.388;17.798;2022-08-03T03:23:56;16.50;99.90
12688;DHT22;6408;59.388;17.798;2022-08-03T03:26:25;16.50;99.90
12688;DHT22;6408;59.388;17.798;2022-08-03T03:28:53;16.50;99.90
12688;DHT22;6408;59.388;17.798;2022-08-03T03:31:21;16.50;99.90
12688;DHT22;6408;59.388;17.798;2022-08-03T03:33:48;16.50;99.90
12688;DHT22;6408;59.388;17.798;2022-08-03T03:36:15;16.60;99.90
12688;DHT22;6408;59.388;17.798;2022-08-03T03:38:43;16.50;99.90
12688;DHT22;6408;59.388;17.798;2022-08-03T03:41:09;16.40;99.90
12688;DHT22;6408;59.388;17.798;2022-08-03T03:43:37;16.50;99.90
12688;DHT22;6408;59.388;17.798;2022-08-03T03:46:05;16.50;99.90
12688;DHT22;6408;59.388;17.798;2022-08-03T03:48:32;16.50;99.90
12688;DHT22;6408;59.388;17.798;2022-08-03T03:50:59;16.50;99.90
12688;DHT22;6408;59.388;17.798;2022-08-03T03:53:26;16.70;99.90
12688;DHT22;6408;59.388;17.798;2022-08-03T03:55:53;16.80;99.90
12688;DHT22;6408;59.388;17.798;2022-08-03T03:58:20;16.90;99.90
12688;DHT22;6408;59.388;17.798;2022-08-03T04:00:47;17.10;99.90
12688;DHT22;6408;59.388;17.798;2022-08-03T04:03:15;17.20;99.90
12688;DHT22;6408;59.388;17.798;2022-08-03T04:05:43;17.20;99.90
12688;DHT22;6408;59.388;17.798;2022-08-03T04:08:27;17.20;99.90
12688;DHT22;6408;59.388;17.798;2022-08-03T04:11:15;17.30;99.90
12688;DHT22;6408;59.388;17.798;2022-08-03T04:13:48;17.60;99.90
12688;DHT22;6408;59.388;17.798;2022-08-03T04:16:17;17.90;99.90
12688;DHT22;6408;59.388;17.798;2022-08-03T04:18:58;18.20;99.90
12688;DHT22;6408;59.388;17.798;2022-08-03T04:21:27;18.20;99.90
12688;DHT22;6408;59.388;17.798;2022-08-03T04:23:59;18.10;99.90
12688;DHT22;6408;59.388;17.798;2022-08-03T04:26:30;18.10;99.90
12688;DHT22;6408;59.388;17.798;2022-08-03T04:28:59;17.90;99.90
12688;DHT22;6408;59.388;17.798;2022-08-03T04:31:26;17.80;99.90
12688;DHT22;6408;59.388;17.798;2022-08-03T04:33:55;17.80;99.90
12688;DHT22;6408;59.388;17.798;2022-08-03T04:36:25;17.80;99.90
12688;DHT22;6408;59.388;17.798;2022-08-03T04:38:58;17.90;99.90
12688;DHT22;6408;59.388;17.798;2022-08-03T04:41:27;18.10;99.90
12688;DHT22;6408;59.388;17.798;2022-08-03T04:43:55;18.00;99.90
12688;DHT22;6408;59.388;17.798;2022-08-03T04:46:25;18.00;99.90
12688;DHT22;6408;59.388;17.798;2022-08-03T04:48:52;18.00;99.90
12688;DHT22;6408;59.388;17.798;2022-08-03T04:51:21;17.90;99.90
12688;DHT22;6408;59.388;17.798;2022-08-03T04:53:48;17.80;99.90
12688;DHT22;6408;59.388;17.798;2022-08-03T04:56:15;17.90;99.90
12688;DHT22;6408;59.388;17.798;2022-08-03T04:58:41;17.80;99.90
12688;DHT22;6408;59.388;17.798;2022-08-03T05:01:08;17.80;99.90
12688;DHT22;6408;59.388;17.798;2022-08-03T05:03:35;17.70;99.90
12688;DHT22;6408;59.388;17.798;2022-08-03T05:06:02;17.70;99.90
12688;DHT22;6408;59.388;17.798;2022-08-03T05:08:30;17.80;99.90
12688;DHT22;6408;59.388;17.798;2022-08-03T05:10:57;17.80;99.90
12688;DHT22;6408;59.388;17.798;2022-08-03T05:13:24;17.70;99.90
12688;DHT22;6408;59.388;17.798;2022-08-03T05:15:51;17.70;99.90
12688;DHT22;6408;59.388;17.798;2022-08-03T05:18:18;17.80;99.90
12688;DHT22;6408;59.388;17.798;2022-08-03T05:20:45;17.80;99.90
12688;DHT22;6408;59.388;17.798;2022-08-03T05:23:12;17.90;99.90
12688;DHT22;6408;59.388;17.798;2022-08-03T05:25:40;18.00;99.90
12688;DHT22;6408;59.388;17.798;2022-08-03T05:28:07;18.10;99.90
12688;DHT22;6408;59.388;17.798;2022-08-03T05:30:33;18.10;99.90
12688;DHT22;6408;59.388;17.798;2022-08-03T05:33:01;18.20;99.90
12688;DHT22;6408;59.388;17.798;2022-08-03T05:35:28;18.20;99.90
12688;DHT22;6408;59.388;17.798;2022-08-03T05:37:55;18.20;99.90
12688;DHT22;6408;59.388;17.798;2022-08-03T05:40:22;18.20;99.90
12688;DHT22;6408;59.388;17.798;2022-08-03T05:42:50;18.20;99.90
12688;DHT22;6408;59.388;17.798;2022-08-03T05:45:17;18.30;99.90
12688;DHT22;6408;59.388;17.798;2022-08-03T05:47:44;18.30;99.90
12688;DHT22;6408;59.388;17.798;2022-08-03T05:50:11;18.30;99.90
12688;DHT22;6408;59.388;17.798;2022-08-03T05:52:39;18.30;99.90
12688;DHT22;6408;59.388;17.798;2022-08-03T05:55:08;18.40;99.90
12688;DHT22;6408;59.388;17.798;2022-08-03T05:57:35;18.40;99.90
12688;DHT22;6408;59.388;17.798;2022-08-03T06:00:06;18.40;99.90
12688;DHT22;6408;59.388;17.798;2022-08-03T06:02:33;18.50;99.90
12688;DHT22;6408;59.388;17.798;2022-08-03T06:05:00;18.60;99.90
12688;DHT22;6408;59.388;17.798;2022-08-03T06:07:27;18.60;99.90
12688;DHT22;6408;59.388;17.798;2022-08-03T06:09:55;18.70;99.90
12688;DHT22;6408;59.388;17.798;2022-08-03T06:12:21;18.90;99.90
12688;DHT22;6408;59.388;17.798;2022-08-03T06:14:48;19.00;99.90
12688;DHT22;6408;59.388;17.798;2022-08-03T06:17:16;19.00;99.90
12688;DHT22;6408;59.388;17.798;2022-08-03T06:19:43;19.00;99.90
12688;DHT22;6408;59.388;17.798;2022-08-03T06:22:10;19.10;99.90
12688;DHT22;6408;59.388;17.798;2022-08-03T06:24:37;19.20;99.90
12688;DHT22;6408;59.388;17.798;2022-08-03T06:27:03;19.20;99.90
12688;DHT22;6408;59.388;17.798;2022-08-03T06:29:30;19.20;99.90
12688;DHT22;6408;59.388;17.798;2022-08-03T06:31:57;19.30;99.90
12688;DHT22;6408;59.388;17.798;2022-08-03T06:34:25;19.50;99.90
12688;DHT22;6408;59.388;17.798;2022-08-03T06:36:52;19.60;99.90
12688;DHT22;6408;59.388;17.798;2022-08-03T06:39:19;19.60;99.90
12688;DHT22;6408;59.388;17.798;2022-08-03T06:41:46;19.50;99.90
12688;DHT22;6408;59.388;17.798;2022-08-03T06:44:13;19.50;99.90
12688;DHT22;6408;59.388;17.798;2022-08-03T06:46:40;19.60;99.90
12688;DHT22;6408;59.388;17.798;2022-08-03T06:49:07;20.00;99.90
12688;DHT22;6408;59.388;17.798;2022-08-03T06:51:35;20.20;99.90
12688;DHT22;6408;59.388;17.798;2022-08-03T06:54:02;20.10;99.90
12688;DHT22;6408;59.388;17.798;2022-08-03T06:56:29;20.00;99.90
12688;DHT22;6408;59.388;17.798;2022-08-03T06:58:56;19.80;99.90
12688;DHT22;6408;59.388;17.798;2022-08-03T07:01:22;19.80;99.90
12688;DHT22;6408;59.388;17.798;2022-08-03T07:03:49;19.90;99.90
12688;DHT22;6408;59.388;17.798;2022-08-03T07:06:16;20.00;99.90
12688;DHT22;6408;59.388;17.798;2022-08-03T07:08:44;20.00;99.90
12688;DHT22;6408;59.388;17.798;2022-08-03T07:11:11;20.10;99.90
12688;DHT22;6408;59.388;17.798;2022-08-03T07:13:37;20.30;99.90
12688;DHT22;6408;59.388;17.798;2022-08-03T07:16:05;20.50;99.90
12688;DHT22;6408;59.388;17.798;2022-08-03T07:18:32;21.20;99.90
12688;DHT22;6408;59.388;17.798;2022-08-03T07:20:59;21.40;99.90
12688;DHT22;6408;59.388;17.798;2022-08-03T07:23:25;21.80;99.90
12688;DHT22;6408;59.388;17.798;2022-08-03T07:25:54;22.00;99.90
12688;DHT22;6408;59.388;17.798;2022-08-03T07:28:21;22.00;99.90
12688;DHT22;6408;59.388;17.798;2022-08-03T07:30:48;22.20;99.90
12688;DHT22;6408;59.388;17.798;2022-08-03T07:33:15;22.30;99.90
12688;DHT22;6408;59.388;17.798;2022-08-03T07:35:41;22.40;99.90
12688;DHT22;6408;59.388;17.798;2022-08-03T07:38:08;22.70;99.90
12688;DHT22;6408;59.388;17.798;2022-08-03T07:40:35;23.10;99.90
12688;DHT22;6408;59.388;17.798;2022-08-03T07:43:03;23.30;99.90
12688;DHT22;6408;59.388;17.798;2022-08-03T07:45:30;23.30;99.90
12688;DHT22;6408;59.388;17.798;2022-08-03T07:47:57;23.30;99.90
12688;DHT22;6408;59.388;17.798;2022-08-03T07:50:24;23.70;99.90
12688;DHT22;6408;59.388;17.798;2022-08-03T07:52:51;24.10;99.90
12688;DHT22;6408;59.388;17.798;2022-08-03T07:55:22;24.30;99.90
12688;DHT22;6408;59.388;17.798;2022-08-03T07:57:59;24.20;99.90
12688;DHT22;6408;59.388;17.798;2022-08-03T08:00:27;24.30;99.90
12688;DHT22;6408;59.388;17.798;2022-08-03T08:02:54;24.40;99.90
12688;DHT22;6408;59.388;17.798;2022-08-03T08:05:21;24.40;99.90
12688;DHT22;6408;59.388;17.798;2022-08-03T08:07:48;24.20;99.90
12688;DHT22;6408;59.388;17.798;2022-08-03T08:10:14;24.00;99.90
12688;DHT22;6408;59.388;17.798;2022-08-03T08:12:42;23.80;99.90
12688;DHT22;6408;59.388;17.798;2022-08-03T08:15:08;23.70;99.90
12688;DHT22;6408;59.388;17.798;2022-08-03T08:17:45;23.60;99.90
12688;DHT22;6408;59.388;17.798;2022-08-03T08:20:15;23.30;99.90
12688;DHT22;6408;59.388;17.798;2022-08-03T08:22:42;23.00;99.90
12688;DHT22;6408;59.388;17.798;2022-08-03T08:25:09;22.90;99.90
12688;DHT22;6408;59.388;17.798;2022-08-03T08:27:41;22.80;99.90
12688;DHT22;6408;59.388;17.798;2022-08-03T08:30:09;22.80;99.90
12688;DHT22;6408;59.388;17.798;2022-08-03T08:32:37;22.70;99.90
12688;DHT22;6408;59.388;17.798;2022-08-03T08:35:06;22.70;99.90
12688;DHT22;6408;59.388;17.798;2022-08-03T08:37:33;22.70;99.90
12688;DHT22;6408;59.388;17.798;2022-08-03T08:40:00;22.70;99.90
12688;DHT22;6408;59.388;17.798;2022-08-03T08:42:28;22.80;99.90
12688;DHT22;6408;59.388;17.798;2022-08-03T08:44:54;23.00;99.90
12688;DHT22;6408;59.388;17.798;2022-08-03T08:47:24;23.40;99.90
12688;DHT22;6408;59.388;17.798;2022-08-03T08:49:52;23.70;99.90
12688;DHT22;6408;59.388;17.798;2022-08-03T08:52:23;24.40;99.90
12688;DHT22;6408;59.388;17.798;2022-08-03T08:54:52;24.70;99.90
12688;DHT22;6408;59.388;17.798;2022-08-03T08:57:22;24.70;99.90
12688;DHT22;6408;59.388;17.798;2022-08-03T08:59:52;24.80;99.90
12688;DHT22;6408;59.388;17.798;2022-08-03T09:02:21;25.10;99.90
12688;DHT22;6408;59.388;17.798;2022-08-03T09:04:48;25.10;99.90
12688;DHT22;6408;59.388;17.798;2022-08-03T09:07:15;24.90;99.90
12688;DHT22;6408;59.388;17.798;2022-08-03T09:09:44;24.70;99.90
12688;DHT22;6408;59.388;17.798;2022-08-03T09:12:11;24.70;99.90
12688;DHT22;6408;59.388;17.798;2022-08-03T09:14:38;24.70;99.90
12688;DHT22;6408;59.388;17.798;2022-08-03T09:17:05;24.80;99.90
12688;DHT22;6408;59.388;17.798;2022-08-03T09:19:34;24.90;99.90
12688;DHT22;6408;59.388;17.798;2022-08-03T09:22:08;25.10;99.90
12688;DHT22;6408;59.388;17.798;2022-08-03T09:24:37;25.10;99.90
12688;DHT22;6408;59.388;17.798;2022-08-03T09:27:10;25.30;99.90
12688;DHT22;6408;59.388;17.798;2022-08-03T09:29:38;25.40;99.90
12688;DHT22;6408;59.388;17.798;2022-08-03T09:32:05;25.60;99.90
12688;DHT22;6408;59.388;17.798;2022-08-03T09:34:31;25.90;99.90
12688;DHT22;6408;59.388;17.798;2022-08-03T09:36:58;26.00;99.90
12688;DHT22;6408;59.388;17.798;2022-08-03T09:39:26;26.30;99.90
12688;DHT22;6408;59.388;17.798;2022-08-03T09:42:08;26.50;99.90
12688;DHT22;6408;59.388;17.798;2022-08-03T09:44:36;26.40;99.90
12688;DHT22;6408;59.388;17.798;2022-08-03T09:47:03;26.50;99.90
12688;DHT22;6408;59.388;17.798;2022-08-03T09:49:31;26.60;99.90
12688;DHT22;6408;59.388;17.798;2022-08-03T09:52:00;26.90;99.90
12688;DHT22;6408;59.388;17.798;2022-08-03T09:54:30;27.20;99.90
12688;DHT22;6408;59.388;17.798;2022-08-03T09:56:57;27.40;99.90
12688;DHT22;6408;59.388;17.798;2022-08-03T09:59:27;27.40;99.90
12688;DHT22;6408;59.388;17.798;2022-08-03T10:01:54;27.30;99.90
12688;DHT22;6408;59.388;17.798;2022-08-03T10:04:22;27.10;99.90
12688;DHT22;6408;59.388;17.798;2022-08-03T10:07:04;27.00;99.90
12688;DHT22;6408;59.388;17.798;2022-08-03T10:09:31;26.90;99.90
12688;DHT22;6408;59.388;17.798;2022-08-03T10:12:06;26.80;99.90
12688;DHT22;6408;59.388;17.798;2022-08-03T10:14:36;26.80;99.90
12688;DHT22;6408;59.388;17.798;2022-08-03T10:17:04;26.70;99.90
12688;DHT22;6408;59.388;17.798;2022-08-03T10:19:31;26.60;99.90
12688;DHT22;6408;59.388;17.798;2022-08-03T10:22:02;26.70;99.90
12688;DHT22;6408;59.388;17.798;2022-08-03T10:24:33;26.80;99.90
12688;DHT22;6408;59.388;17.798;2022-08-03T10:27:03;27.10;99.90
12688;DHT22;6408;59.388;17.798;2022-08-03T10:29:36;27.50;99.90
12688;DHT22;6408;59.388;17.798;2022-08-03T10:32:08;27.80;99.90
12688;DHT22;6408;59.388;17.798;2022-08-03T10:34:38;27.90;99.90
12688;DHT22;6408;59.388;17.798;2022-08-03T10:37:09;27.90;99.90
12688;DHT22;6408;59.388;17.798;2022-08-03T10:39:36;28.00;99.90
12688;DHT22;6408;59.388;17.798;2022-08-03T10:42:19;27.90;99.90
12688;DHT22;6408;59.388;17.798;2022-08-03T10:44:49;27.60;99.90
12688;DHT22;6408;59.388;17.798;2022-08-03T10:47:16;27.50;99.90
12688;DHT22;6408;59.388;17.798;2022-08-03T10:49:44;27.70;99.90
12688;DHT22;6408;59.388;17.798;2022-08-03T10:52:13;27.80;99.90
12688;DHT22;6408;59.388;17.798;2022-08-03T10:54:41;27.80;99.90
12688;DHT22;6408;59.388;17.798;2022-08-03T10:57:46;27.50;99.90
12688;DHT22;6408;59.388;17.798;2022-08-03T11:00:16;27.50;99.90
12688;DHT22;6408;59.388;17.798;2022-08-03T11:05:40;27.80;99.90
12688;DHT22;6408;59.388;17.798;2022-08-03T11:08:17;27.60;99.90
12688;DHT22;6408;59.388;17.798;2022-08-03T11:10:45;27.60;99.90
12688;DHT22;6408;59.388;17.798;2022-08-03T11:13:14;27.60;99.90
12688;DHT22;6408;59.388;17.798;2022-08-03T11:15:45;27.50;99.90
12688;DHT22;6408;59.388;17.798;2022-08-03T11:18:13;27.30;99.90
12688;DHT22;6408;59.388;17.798;2022-08-03T11:20:45;26.90;99.90
12688;DHT22;6408;59.388;17.798;2022-08-03T11:23:12;26.70;99.90
12688;DHT22;6408;59.388;17.798;2022-08-03T11:26:08;26.30;99.90
12688;DHT22;6408;59.388;17.798;2022-08-03T11:28:35;26.00;99.90
12688;DHT22;6408;59.388;17.798;2022-08-03T11:31:45;26.00;99.90
12688;DHT22;6408;59.388;17.798;2022-08-03T11:34:15;26.10;99.90
12688;DHT22;6408;59.388;17.798;2022-08-03T11:39:45;26.50;99.90
12688;DHT22;6408;59.388;17.798;2022-08-03T11:42:37;26.50;99.90
12688;DHT22;6408;59.388;17.798;2022-08-03T11:45:06;26.50;99.90
12688;DHT22;6408;59.388;17.798;2022-08-03T11:47:36;26.40;99.90
12688;DHT22;6408;59.388;17.798;2022-08-03T11:50:04;26.30;99.90
12688;DHT22;6408;59.388;17.798;2022-08-03T11:52:34;26.20;99.90
12688;DHT22;6408;59.388;17.798;2022-08-03T11:55:02;26.00;99.90
12688;DHT22;6408;59.388;17.798;2022-08-03T11:57:34;25.80;99.90
12688;DHT22;6408;59.388;17.798;2022-08-03T12:00:02;25.60;99.90
12688;DHT22;6408;59.388;17.798;2022-08-03T12:02:29;25.60;99.90
12688;DHT22;6408;59.388;17.798;2022-08-03T12:04:58;25.50;99.90
12688;DHT22;6408;59.388;17.798;2022-08-03T12:07:27;25.50;99.90
12688;DHT22;6408;59.388;17.798;2022-08-03T12:10:07;25.60;99.90
12688;DHT22;6408;59.388;17.798;2022-08-03T12:12:34;26.00;99.90
12688;DHT22;6408;59.388;17.798;2022-08-03T12:15:01;26.10;99.90
12688;DHT22;6408;59.388;17.798;2022-08-03T12:17:32;26.00;99.90
12688;DHT22;6408;59.388;17.798;2022-08-03T12:20:01;26.50;99.90
12688;DHT22;6408;59.388;17.798;2022-08-03T12:22:31;26.90;99.90
12688;DHT22;6408;59.388;17.798;2022-08-03T12:24:58;27.20;99.90
12688;DHT22;6408;59.388;17.798;2022-08-03T12:27:26;27.30;99.90
12688;DHT22;6408;59.388;17.798;2022-08-03T12:29:55;27.20;99.90
12688;DHT22;6408;59.388;17.798;2022-08-03T12:32:22;27.10;99.90
12688;DHT22;6408;59.388;17.798;2022-08-03T12:34:50;27.20;99.90
12688;DHT22;6408;59.388;17.798;2022-08-03T12:37:19;27.20;99.90
12688;DHT22;6408;59.388;17.798;2022-08-03T12:39:50;27.10;99.90
12688;DHT22;6408;59.388;17.798;2022-08-03T12:42:17;27.20;99.90
12688;DHT22;6408;59.388;17.798;2022-08-03T12:44:44;27.40;99.90
12688;DHT22;6408;59.388;17.798;2022-08-03T12:47:13;27.40;99.90
12688;DHT22;6408;59.388;17.798;2022-08-03T12:49:44;27.60;99.90
12688;DHT22;6408;59.388;17.798;2022-08-03T12:52:11;27.60;99.90
12688;DHT22;6408;59.388;17.798;2022-08-03T12:54:39;27.50;99.90
12688;DHT22;6408;59.388;17.798;2022-08-03T12:57:08;27.60;99.90
12688;DHT22;6408;59.388;17.798;2022-08-03T12:59:36;27.60;99.90
12688;DHT22;6408;59.388;17.798;2022-08-03T13:02:13;27.30;99.90
12688;DHT22;6408;59.388;17.798;2022-08-03T13:04:41;27.10;99.90
12688;DHT22;6408;59.388;17.798;2022-08-03T13:07:08;26.80;99.90
12688;DHT22;6408;59.388;17.798;2022-08-03T13:09:42;26.80;99.90
12688;DHT22;6408;59.388;17.798;2022-08-03T13:12:10;27.00;99.90
12688;DHT22;6408;59.388;17.798;2022-08-03T13:14:37;27.30;99.90
12688;DHT22;6408;59.388;17.798;2022-08-03T13:17:05;27.60;99.90
12688;DHT22;6408;59.388;17.798;2022-08-03T13:19:33;27.70;99.90
12688;DHT22;6408;59.388;17.798;2022-08-03T13:22:00;27.80;99.90
12688;DHT22;6408;59.388;17.798;2022-08-03T13:24:35;27.80;99.90
12688;DHT22;6408;59.388;17.798;2022-08-03T13:27:04;27.70;99.90
12688;DHT22;6408;59.388;17.798;2022-08-03T13:29:32;27.40;99.90
12688;DHT22;6408;59.388;17.798;2022-08-03T13:31:58;27.40;99.90
12688;DHT22;6408;59.388;17.798;2022-08-03T13:34:25;27.40;99.90
12688;DHT22;6408;59.388;17.798;2022-08-03T13:36:52;27.40;99.90
12688;DHT22;6408;59.388;17.798;2022-08-03T13:39:19;27.20;99.90
12688;DHT22;6408;59.388;17.798;2022-08-03T13:41:46;27.10;99.90
12688;DHT22;6408;59.388;17.798;2022-08-03T13:44:14;27.30;99.90
12688;DHT22;6408;59.388;17.798;2022-08-03T13:46:41;27.30;99.90
12688;DHT22;6408;59.388;17.798;2022-08-03T13:49:08;27.30;99.90
12688;DHT22;6408;59.388;17.798;2022-08-03T13:51:35;27.30;99.90
12688;DHT22;6408;59.388;17.798;2022-08-03T13:54:02;27.20;99.90
12688;DHT22;6408;59.388;17.798;2022-08-03T13:56:29;26.90;99.90
12688;DHT22;6408;59.388;17.798;2022-08-03T13:58:57;26.80;99.90
12688;DHT22;6408;59.388;17.798;2022-08-03T14:01:25;26.50;99.90
12688;DHT22;6408;59.388;17.798;2022-08-03T14:03:52;26.40;99.90
12688;DHT22;6408;59.388;17.798;2022-08-03T14:06:21;26.20;99.90
12688;DHT22;6408;59.388;17.798;2022-08-03T14:08:48;26.00;99.90
12688;DHT22;6408;59.388;17.798;2022-08-03T14:11:16;25.90;99.90
12688;DHT22;6408;59.388;17.798;2022-08-03T14:13:43;25.90;99.90
12688;DHT22;6408;59.388;17.798;2022-08-03T14:16:09;25.90;99.90
12688;DHT22;6408;59.388;17.798;2022-08-03T14:18:37;25.90;99.90
12688;DHT22;6408;59.388;17.798;2022-08-03T14:21:04;25.90;99.90
12688;DHT22;6408;59.388;17.798;2022-08-03T14:23:31;25.90;99.90
12688;DHT22;6408;59.388;17.798;2022-08-03T14:25:58;26.10;99.90
12688;DHT22;6408;59.388;17.798;2022-08-03T14:28:25;26.40;99.90
12688;DHT22;6408;59.388;17.798;2022-08-03T14:30:54;26.40;99.90
12688;DHT22;6408;59.388;17.798;2022-08-03T14:33:21;26.20;99.90
12688;DHT22;6408;59.388;17.798;2022-08-03T14:35:50;26.20;99.90
12688;DHT22;6408;59.388;17.798;2022-08-03T14:38:17;26.20;99.90
12688;DHT22;6408;59.388;17.798;2022-08-03T14:40:44;26.00;99.90
12688;DHT22;6408;59.388;17.798;2022-08-03T14:43:12;25.90;99.90
12688;DHT22;6408;59.388;17.798;2022-08-03T14:45:39;25.70;99.90
12688;DHT22;6408;59.388;17.798;2022-08-03T14:48:06;25.60;99.90
12688;DHT22;6408;59.388;17.798;2022-08-03T14:50:33;25.60;99.90
12688;DHT22;6408;59.388;17.798;2022-08-03T14:53:01;25.40;99.90
12688;DHT22;6408;59.388;17.798;2022-08-03T14:55:28;25.40;99.90
12688;DHT22;6408;59.388;17.798;2022-08-03T14:57:54;25.40;99.90
12688;DHT22;6408;59.388;17.798;2022-08-03T15:00:21;25.40;99.90
12688;DHT22;6408;59.388;17.798;2022-08-03T15:02:48;25.30;99.90
12688;DHT22;6408;59.388;17.798;2022-08-03T15:05:15;25.10;99.90
12688;DHT22;6408;59.388;17.798;2022-08-03T15:07:41;25.10;99.90
12688;DHT22;6408;59.388;17.798;2022-08-03T15:10:09;25.10;99.90
12688;DHT22;6408;59.388;17.798;2022-08-03T15:12:36;25.10;99.90
12688;DHT22;6408;59.388;17.798;2022-08-03T15:15:03;25.10;99.90
12688;DHT22;6408;59.388;17.798;2022-08-03T15:17:30;25.10;99.90
12688;DHT22;6408;59.388;17.798;2022-08-03T15:19:57;25.00;99.90
12688;DHT22;6408;59.388;17.798;2022-08-03T15:22:24;24.90;99.90
12688;DHT22;6408;59.388;17.798;2022-08-03T15:24:51;24.80;99.90
12688;DHT22;6408;59.388;17.798;2022-08-03T15:27:19;24.60;99.90
12688;DHT22;6408;59.388;17.798;2022-08-03T15:29:46;24.40;99.90
12688;DHT22;6408;59.388;17.798;2022-08-03T15:32:13;24.40;99.90
12688;DHT22;6408;59.388;17.798;2022-08-03T15:34:40;24.40;99.90
12688;DHT22;6408;59.388;17.798;2022-08-03T15:37:08;24.30;99.90
12688;DHT22;6408;59.388;17.798;2022-08-03T15:39:35;24.30;99.90
12688;DHT22;6408;59.388;17.798;2022-08-03T15:42:01;24.30;99.90
12688;DHT22;6408;59.388;17.798;2022-08-03T15:44:29;24.20;99.90
12688;DHT22;6408;59.388;17.798;2022-08-03T15:46:57;24.20;99.90
12688;DHT22;6408;59.388;17.798;2022-08-03T15:49:24;24.20;99.90